METAR Data
IDs: Format: Raw Decoded Include TAF

Data at: 1000 UTC 16 Jul 2019

METAR for:UUBW (Moscow/Ramenskoye Ar, --, RA)
Text:UUBW 160930Z 09004MPS 9999 FEW030CB 19/14 Q1011 R30/010060 NOSIG
Temperature: 19.0°C ( 66°F)
Dewpoint: 14.0°C ( 57°F) [RH = 73%]
Pressure (altimeter):29.85 inches Hg (1011.0 mb)
Winds:from the E (90 degrees) at 9 MPH (8 knots; 4.1 m/s)
Visibility:6 or more sm (10+ km)
Ceiling:at least 12,000 feet AGL
Clouds: few clouds at 3000 feet AGL